Time;durP1;ratioP1;P1;durP2;ratioP2;P2;SDS_P1;SDS_P2;PMS_P1;PMS_P2;Temp;Humidity;BMP_temperature;BMP_pressure;BME280_temperature;BME280_humidity;BME280_pressure;Samples;Min_cycle;Max_cycle;Signal;HPM_P1;HPM_P2
2023/08/25 00:01:16;;;;;;;4.40;3.30;;;22.40;75.70;;;;;;5010602;28;20544;-68
2023/08/25 00:03:41;;;;;;;6.20;3.47;;;22.40;75.40;;;;;;5013026;28;20490;-68
2023/08/25 00:06:07;;;;;;;5.80;3.20;;;22.50;74.90;;;;;;5012017;28;20424;-70
2023/08/25 00:08:33;;;;;;;5.57;3.17;;;22.50;74.60;;;;;;5012405;28;20194;-67
2023/08/25 00:10:58;;;;;;;5.30;3.30;;;22.50;74.60;;;;;;5010662;28;20222;-70
2023/08/25 00:13:24;;;;;;;7.93;3.23;;;22.60;74.00;;;;;;5013848;28;20951;-70
2023/08/25 00:15:50;;;;;;;5.13;3.00;;;22.60;74.20;;;;;;5012501;28;20272;-68
2023/08/25 00:18:16;;;;;;;8.13;3.47;;;22.70;73.90;;;;;;5013752;28;20591;-70
2023/08/25 00:20:41;;;;;;;7.03;3.47;;;22.70;73.90;;;;;;5011471;28;20274;-69
2023/08/25 00:23:07;;;;;;;4.00;3.00;;;22.70;73.70;;;;;;5009550;28;20466;-70
2023/08/25 00:25:36;;;;;;;6.47;3.30;;;22.80;73.70;;;;;;5012994;28;20211;-67
2023/08/25 00:28:01;;;;;;;4.10;3.03;;;22.80;73.50;;;;;;5006763;28;20799;-69
2023/08/25 00:30:27;;;;;;;5.07;3.30;;;22.80;72.90;;;;;;5009034;28;20466;-67
2023/08/25 00:32:53;;;;;;;4.97;2.53;;;22.80;73.20;;;;;;5011648;28;20238;-69
2023/08/25 00:35:18;;;;;;;4.40;3.40;;;22.80;72.70;;;;;;5012638;28;20190;-70
2023/08/25 00:37:44;;;;;;;7.53;3.50;;;22.80;72.90;;;;;;5012339;28;20737;-68
2023/08/25 00:40:10;;;;;;;6.80;3.47;;;22.80;73.30;;;;;;5011542;28;20203;-69
2023/08/25 00:42:36;;;;;;;5.30;3.10;;;22.80;73.20;;;;;;5012616;28;20179;-69
2023/08/25 00:45:01;;;;;;;4.27;3.33;;;22.70;73.30;;;;;;5015972;28;20520;-69
2023/08/25 00:47:28;;;;;;;6.43;3.30;;;22.80;73.50;;;;;;5013302;28;20216;-69
2023/08/25 00:49:54;;;;;;;6.20;3.90;;;22.80;73.30;;;;;;5008953;28;20253;-70
2023/08/25 00:52:22;;;;;;;8.57;3.50;;;22.80;73.30;;;;;;5011569;28;20435;-71
2023/08/25 00:54:51;;;;;;;5.13;3.07;;;22.80;72.70;;;;;;5009244;28;20754;-71
2023/08/25 00:57:16;;;;;;;6.03;2.93;;;22.80;72.30;;;;;;5013084;28;20947;-70
2023/08/25 00:59:42;;;;;;;3.57;2.80;;;22.90;71.70;;;;;;5007374;28;20457;-70
2023/08/25 01:02:08;;;;;;;5.03;3.80;;;22.90;71.70;;;;;;5009357;28;20210;-71
2023/08/25 01:04:34;;;;;;;4.60;2.90;;;22.90;72.00;;;;;;5009868;28;20216;-68
2023/08/25 01:07:00;;;;;;;4.40;3.00;;;22.90;71.80;;;;;;5012345;28;20735;-67
2023/08/25 01:09:26;;;;;;;5.00;3.17;;;22.90;72.10;;;;;;5010632;28;20187;-67
2023/08/25 01:12:04;;;;;;;9.97;3.50;;;23.00;71.80;;;;;;5009559;28;20466;-68
2023/08/25 01:14:52;;;;;;;5.50;3.17;;;22.90;72.10;;;;;;5011488;28;20433;-68
2023/08/25 01:17:22;;;;;;;5.57;3.57;;;23.00;72.70;;;;;;5010181;28;20419;-70
2023/08/25 01:19:54;;;;;;;6.60;4.73;;;22.90;72.70;;;;;;5009294;28;20456;-69
2023/08/25 01:22:36;;;;;;;4.43;3.03;;;22.90;72.60;;;;;;5009968;28;20442;-69
2023/08/25 01:25:24;;;;;;;6.90;3.57;;;22.80;72.60;;;;;;5012347;28;21140;-70
2023/08/25 01:27:50;;;;;;;5.80;3.70;;;22.80;72.30;;;;;;5011709;28;20510;-70
2023/08/25 01:30:16;;;;;;;9.57;4.27;;;22.90;72.70;;;;;;5020269;28;20477;-70
2023/08/25 01:32:41;;;;;;;5.67;3.40;;;23.00;72.70;;;;;;5012915;28;20198;-70
2023/08/25 01:35:08;;;;;;;6.30;3.67;;;22.90;72.60;;;;;;5012555;28;20204;-69
2023/08/25 01:37:42;;;;;;;9.00;3.93;;;23.00;71.80;;;;;;5013078;28;20196;-69
2023/08/25 01:40:23;;;;;;;4.33;2.97;;;23.10;70.70;;;;;;5009165;28;20824;-68
2023/08/25 01:42:52;;;;;;;5.80;3.30;;;23.00;71.30;;;;;;5011370;28;20967;-69
2023/08/25 01:45:19;;;;;;;4.60;3.23;;;23.00;71.40;;;;;;5016126;28;20457;-69
2023/08/25 01:47:46;;;;;;;6.13;3.43;;;22.90;71.70;;;;;;5011448;28;20433;-68
2023/08/25 01:50:14;;;;;;;5.57;3.30;;;22.90;72.00;;;;;;5013386;28;20434;-69
2023/08/25 01:52:40;;;;;;;5.40;3.60;;;22.90;72.10;;;;;;5014896;28;20419;-68
2023/08/25 01:55:07;;;;;;;7.70;3.80;;;22.90;72.30;;;;;;5015646;28;20946;-69
2023/08/25 01:57:33;;;;;;;8.70;3.50;;;22.90;72.30;;;;;;5011538;28;21010;-69
2023/08/25 01:59:58;;;;;;;4.50;2.97;;;22.90;72.60;;;;;;5014058;28;20509;-67
2023/08/25 02:02:24;;;;;;;4.40;3.10;;;22.90;72.90;;;;;;5013500;28;20191;-67
2023/08/25 02:04:49;;;;;;;5.60;3.50;;;23.00;72.90;;;;;;5026684;28;20219;-68
2023/08/25 02:07:15;;;;;;;4.20;3.37;;;23.00;72.70;;;;;;5014434;28;20190;-69
2023/08/25 02:09:41;;;;;;;7.27;3.63;;;23.00;73.00;;;;;;5009296;28;20608;-69
2023/08/25 02:12:07;;;;;;;8.20;3.40;;;23.00;73.30;;;;;;5012416;28;20215;-67
2023/08/25 02:14:32;;;;;;;5.77;2.93;;;22.90;73.30;;;;;;5015593;28;20246;-68
2023/08/25 02:16:58;;;;;;;4.57;3.30;;;22.90;73.70;;;;;;5011529;28;20243;-68
2023/08/25 02:19:23;;;;;;;4.30;3.27;;;22.80;73.60;;;;;;5013684;28;20230;-69
2023/08/25 02:21:49;;;;;;;7.97;3.57;;;22.70;73.70;;;;;;5013256;28;20208;-69
2023/08/25 02:24:14;;;;;;;6.00;3.27;;;22.80;73.90;;;;;;5015748;28;20208;-69
2023/08/25 02:26:40;;;;;;;4.43;3.20;;;22.80;73.90;;;;;;5027311;28;20183;-69
2023/08/25 02:29:06;;;;;;;5.10;3.37;;;22.80;73.90;;;;;;5008897;28;20722;-68
2023/08/25 02:31:31;;;;;;;4.83;3.10;;;22.80;73.90;;;;;;5006702;28;20544;-68
2023/08/25 02:33:57;;;;;;;6.47;3.27;;;22.70;73.70;;;;;;5011620;28;20199;-68
2023/08/25 02:36:22;;;;;;;5.10;3.47;;;22.70;73.70;;;;;;5016588;28;20183;-70
2023/08/25 02:38:48;;;;;;;6.83;3.47;;;22.70;73.50;;;;;;5014166;28;20668;-69
2023/08/25 02:41:14;;;;;;;6.13;3.43;;;22.70;73.00;;;;;;5010629;28;20884;-69
2023/08/25 02:43:40;;;;;;;6.37;3.20;;;22.60;72.30;;;;;;5013673;28;20549;-69
2023/08/25 02:46:05;;;;;;;6.73;3.67;;;22.60;72.10;;;;;;5027283;28;20245;-69
2023/08/25 02:48:31;;;;;;;5.33;3.67;;;22.60;72.60;;;;;;5014988;28;20425;-69
2023/08/25 02:50:56;;;;;;;4.77;3.30;;;22.80;71.70;;;;;;5010350;28;20208;-67
2023/08/25 02:53:22;;;;;;;4.93;3.60;;;22.80;71.40;;;;;;5009597;28;20194;-68
2023/08/25 02:55:47;;;;;;;5.07;3.37;;;22.80;71.60;;;;;;5011453;28;20538;-68
2023/08/25 02:58:13;;;;;;;4.93;3.30;;;22.70;71.80;;;;;;5014930;28;20189;-70
2023/08/25 03:00:38;;;;;;;9.10;3.37;;;22.70;72.10;;;;;;5009134;28;21451;-68
2023/08/25 03:03:04;;;;;;;10.00;4.37;;;22.80;72.00;;;;;;5013198;28;20196;-68
2023/08/25 03:05:30;;;;;;;7.07;3.30;;;22.70;72.30;;;;;;5015950;28;20291;-69
2023/08/25 03:07:55;;;;;;;6.00;3.90;;;22.70;72.60;;;;;;5010514;28;20190;-69
2023/08/25 03:10:21;;;;;;;5.40;3.20;;;22.80;72.40;;;;;;5015064;28;20205;-68
2023/08/25 03:12:47;;;;;;;6.03;3.40;;;22.60;72.70;;;;;;5014836;28;20192;-69
2023/08/25 03:15:13;;;;;;;8.60;3.60;;;22.50;73.20;;;;;;5013895;28;20244;-68
2023/08/25 03:17:39;;;;;;;8.30;4.17;;;22.40;73.50;;;;;;5013250;28;20262;-70
2023/08/25 03:20:05;;;;;;;11.00;3.50;;;22.40;73.90;;;;;;5008879;28;20256;-69
2023/08/25 03:22:30;;;;;;;5.03;2.90;;;22.30;74.00;;;;;;5014023;28;20204;-70
2023/08/25 03:24:56;;;;;;;4.27;2.87;;;22.30;74.50;;;;;;5013686;28;20852;-69
2023/08/25 03:27:22;;;;;;;7.03;3.73;;;22.20;74.80;;;;;;5014170;28;20179;-69
2023/08/25 03:29:48;;;;;;;6.00;3.57;;;22.20;74.80;;;;;;5013671;28;20231;-69
2023/08/25 03:32:13;;;;;;;5.60;3.10;;;22.20;74.30;;;;;;5012211;28;20267;-69
2023/08/25 03:34:39;;;;;;;8.13;3.80;;;22.20;74.50;;;;;;5014791;28;20449;-68
2023/08/25 03:37:07;;;;;;;7.17;3.60;;;22.20;74.90;;;;;;5010684;28;20185;-68
2023/08/25 03:39:32;;;;;;;5.47;3.17;;;22.20;74.60;;;;;;5010610;28;20468;-69
2023/08/25 03:41:58;;;;;;;7.90;3.70;;;22.20;74.50;;;;;;5011494;28;20500;-68
2023/08/25 03:44:23;;;;;;;7.60;3.83;;;22.20;74.60;;;;;;5013741;28;20225;-67
2023/08/25 03:46:49;;;;;;;6.17;3.20;;;22.20;74.60;;;;;;5011710;28;20191;-67
2023/08/25 03:49:14;;;;;;;6.10;4.23;;;22.20;74.60;;;;;;5009283;28;20190;-69
2023/08/25 03:51:40;;;;;;;5.90;3.70;;;22.10;74.80;;;;;;5010063;28;20583;-69
2023/08/25 03:54:06;;;;;;;7.77;3.60;;;22.20;75.20;;;;;;5029360;28;20225;-69
2023/08/25 03:56:32;;;;;;;6.97;4.57;;;22.20;75.20;;;;;;5012581;28;20201;-69
2023/08/25 03:58:58;;;;;;;4.93;3.60;;;22.10;75.20;;;;;;5013179;28;20187;-69
2023/08/25 04:01:24;;;;;;;6.57;3.77;;;22.00;75.50;;;;;;5008257;28;20535;-70
2023/08/25 04:03:49;;;;;;;9.23;5.07;;;22.10;75.80;;;;;;5013677;28;20764;-68
2023/08/25 04:06:15;;;;;;;5.40;3.93;;;22.10;75.70;;;;;;5008370;28;20290;-69
2023/08/25 04:08:41;;;;;;;7.67;4.13;;;22.10;75.80;;;;;;5011071;28;20196;-69
2023/08/25 04:11:07;;;;;;;12.80;4.50;;;22.10;75.70;;;;;;5002636;28;20220;-68
2023/08/25 04:13:32;;;;;;;7.70;4.40;;;22.00;74.90;;;;;;5015012;28;20196;-68
2023/08/25 04:15:58;;;;;;;8.60;3.93;;;21.90;75.40;;;;;;5013087;28;20231;-68
2023/08/25 04:18:25;;;;;;;6.77;4.60;;;22.00;75.50;;;;;;5003928;28;20346;-68
2023/08/25 04:20:51;;;;;;;5.00;3.60;;;22.00;75.50;;;;;;5011486;28;20463;-69
2023/08/25 04:23:17;;;;;;;8.30;4.93;;;22.00;75.50;;;;;;5013181;28;20493;-68
2023/08/25 04:25:43;;;;;;;8.33;4.10;;;22.00;75.10;;;;;;5012716;28;20603;-69
2023/08/25 04:28:09;;;;;;;7.10;4.07;;;22.00;74.90;;;;;;5012332;28;20274;-71
2023/08/25 04:30:35;;;;;;;6.83;4.20;;;22.10;74.50;;;;;;5009998;28;20216;-69
2023/08/25 04:33:00;;;;;;;6.23;4.30;;;22.20;73.70;;;;;;5010538;28;20963;-70
2023/08/25 04:35:26;;;;;;;6.37;4.00;;;22.20;73.50;;;;;;5013461;28;20277;-69
2023/08/25 04:37:52;;;;;;;5.10;3.60;;;22.20;73.70;;;;;;5013436;28;20186;-70
2023/08/25 04:40:18;;;;;;;6.70;3.80;;;22.20;73.20;;;;;;5011582;28;20219;-70
2023/08/25 04:42:44;;;;;;;7.97;3.90;;;22.20;73.90;;;;;;5012069;28;20216;-68
2023/08/25 04:45:11;;;;;;;5.77;4.03;;;22.20;73.70;;;;;;5009302;28;21065;-68
2023/08/25 04:47:37;;;;;;;8.43;4.10;;;22.20;73.70;;;;;;5013872;28;20191;-69
2023/08/25 04:50:03;;;;;;;6.07;4.40;;;22.20;74.20;;;;;;5014993;28;20446;-68
2023/08/25 04:52:33;;;;;;;7.00;4.10;;;22.30;74.20;;;;;;5011802;28;20784;-69
2023/08/25 04:54:58;;;;;;;7.53;4.63;;;22.30;74.30;;;;;;5013508;28;20442;-69
2023/08/25 04:57:24;;;;;;;6.73;3.70;;;22.30;74.30;;;;;;5009068;28;20424;-69
2023/08/25 04:59:50;;;;;;;7.53;4.20;;;22.30;74.20;;;;;;5015197;28;20198;-69
2023/08/25 05:02:17;;;;;;;7.23;4.40;;;22.30;74.50;;;;;;5014171;28;20211;-70
2023/08/25 05:04:43;;;;;;;9.60;4.17;;;22.30;74.60;;;;;;5013019;28;20737;-69
2023/08/25 05:07:08;;;;;;;4.70;3.80;;;22.30;74.30;;;;;;5012491;28;20462;-70
2023/08/25 05:09:34;;;;;;;7.90;4.20;;;22.20;74.20;;;;;;5012837;28;20187;-69
2023/08/25 05:11:59;;;;;;;7.37;4.00;;;22.20;74.80;;;;;;5009101;28;20223;-70
2023/08/25 05:14:25;;;;;;;7.50;4.40;;;22.00;74.80;;;;;;5013746;28;20198;-69
2023/08/25 05:16:51;;;;;;;8.73;4.17;;;22.00;75.10;;;;;;5013581;28;20443;-70
2023/08/25 05:19:16;;;;;;;9.07;3.87;;;21.90;75.20;;;;;;5015687;28;20192;-69
2023/08/25 05:21:42;;;;;;;6.73;4.00;;;22.00;75.20;;;;;;5015753;28;20224;-70
2023/08/25 05:24:22;;;;;;;7.93;4.00;;;22.10;74.80;;;;;;5016580;28;20198;-71
2023/08/25 05:26:51;;;;;;;14.80;4.30;;;22.20;74.30;;;;;;5013204;28;20190;-70
2023/08/25 05:29:20;;;;;;;12.40;4.17;;;22.20;74.50;;;;;;5015982;28;20443;-71
2023/08/25 05:31:47;;;;;;;14.87;4.40;;;22.20;74.20;;;;;;5009201;28;20451;-69
2023/08/25 05:34:13;;;;;;;7.63;3.90;;;22.20;73.90;;;;;;5015779;28;20466;-70
2023/08/25 05:36:39;;;;;;;6.00;3.70;;;22.40;73.30;;;;;;5017327;28;20516;-71
2023/08/25 05:39:04;;;;;;;7.70;4.40;;;22.50;73.20;;;;;;5014336;28;20924;-71
2023/08/25 05:41:30;;;;;;;8.33;5.07;;;22.70;72.90;;;;;;5017743;28;20216;-68
2023/08/25 05:43:56;;;;;;;8.37;4.13;;;22.90;71.80;;;;;;5019133;28;20714;-69
2023/08/25 05:46:22;;;;;;;5.63;3.87;;;23.00;71.40;;;;;;5019815;28;20665;-70
2023/08/25 05:48:47;;;;;;;5.03;3.83;;;23.10;71.40;;;;;;5010262;28;20239;-71
2023/08/25 05:51:13;;;;;;;13.37;5.43;;;23.20;71.30;;;;;;5019549;28;20475;-69
2023/08/25 05:53:39;;;;;;;8.37;4.43;;;23.30;71.00;;;;;;5016733;28;20275;-69
2023/08/25 05:56:04;;;;;;;8.67;3.50;;;23.30;71.00;;;;;;5015682;28;20263;-69
2023/08/25 05:58:30;;;;;;;6.13;3.73;;;23.30;71.00;;;;;;5012753;28;20191;-69
2023/08/25 06:00:57;;;;;;;7.57;3.83;;;23.20;71.40;;;;;;5014281;28;20511;-69
2023/08/25 06:03:23;;;;;;;5.73;3.30;;;23.20;71.30;;;;;;5014733;28;20187;-70
2023/08/25 06:05:51;;;;;;;5.60;3.80;;;23.30;71.00;;;;;;5015475;28;20554;-68
2023/08/25 06:08:17;;;;;;;5.77;3.67;;;23.30;70.70;;;;;;5011338;28;20462;-70
2023/08/25 06:10:43;;;;;;;8.33;4.50;;;23.30;70.70;;;;;;5014555;28;21009;-69
2023/08/25 06:13:09;;;;;;;7.90;3.70;;;23.20;71.00;;;;;;5017869;28;20426;-70
2023/08/25 06:15:34;;;;;;;6.40;4.40;;;23.10;71.40;;;;;;5019447;28;20191;-70
2023/08/25 06:18:01;;;;;;;10.63;4.40;;;23.10;72.00;;;;;;5007542;28;20205;-69
2023/08/25 06:20:26;;;;;;;6.17;4.07;;;22.90;72.40;;;;;;5013194;28;20696;-69
2023/08/25 06:22:52;;;;;;;9.77;4.70;;;22.90;72.90;;;;;;5016197;28;20437;-69
2023/08/25 06:25:17;;;;;;;8.57;4.10;;;22.80;73.20;;;;;;5010040;28;20199;-68
2023/08/25 06:27:43;;;;;;;7.37;4.73;;;22.90;73.00;;;;;;5010791;28;20190;-68
2023/08/25 06:30:10;;;;;;;10.93;4.10;;;22.80;72.90;;;;;;5008898;28;20189;-67
2023/08/25 06:32:36;;;;;;;6.37;4.40;;;22.90;72.70;;;;;;5013241;28;20231;-69
2023/08/25 06:35:02;;;;;;;6.63;4.70;;;22.90;72.30;;;;;;5010071;28;20470;-68
2023/08/25 06:37:28;;;;;;;6.40;4.70;;;22.90;71.80;;;;;;5012351;28;20994;-68
2023/08/25 06:39:53;;;;;;;7.07;4.50;;;22.80;71.70;;;;;;5011958;28;20756;-68
2023/08/25 06:42:19;;;;;;;10.60;4.90;;;22.80;72.00;;;;;;5010984;28;20189;-69
2023/08/25 06:44:44;;;;;;;9.40;4.50;;;22.90;71.70;;;;;;5011797;28;20242;-69
2023/08/25 06:47:10;;;;;;;9.20;4.67;;;22.80;72.10;;;;;;5012229;28;20214;-70
2023/08/25 06:49:36;;;;;;;9.23;5.13;;;22.90;72.00;;;;;;5023329;23;21374;-75
2023/08/25 06:52:02;;;;;;;12.23;4.73;;;22.80;72.40;;;;;;5020923;28;20722;-74
2023/08/25 06:54:27;;;;;;;10.83;5.10;;;22.80;73.00;;;;;;5020351;28;20278;-73
2023/08/25 06:56:53;;;;;;;7.70;4.53;;;22.80;73.20;;;;;;5019460;28;20525;-73
2023/08/25 06:59:19;;;;;;;9.00;5.30;;;22.60;73.90;;;;;;5015102;28;20190;-75
2023/08/25 07:01:44;;;;;;;7.73;5.03;;;22.50;75.10;;;;;;5007321;28;20633;-75
2023/08/25 07:04:10;;;;;;;7.97;5.20;;;22.20;75.40;;;;;;5009842;28;20202;-73
2023/08/25 07:06:37;;;;;;;8.03;4.60;;;22.00;77.30;;;;;;5007861;28;20197;-74
2023/08/25 07:09:06;;;;;;;9.70;5.40;;;22.00;78.00;;;;;;5016113;28;20490;-74
2023/08/25 07:11:32;;;;;;;9.90;5.10;;;21.80;78.10;;;;;;5005411;28;20556;-75
2023/08/25 07:13:58;;;;;;;10.60;5.27;;;21.80;78.60;;;;;;5019052;28;20526;-75
2023/08/25 07:16:25;;;;;;;8.43;4.40;;;21.90;78.60;;;;;;5014767;28;21015;-73
2023/08/25 07:18:51;;;;;;;8.10;4.70;;;21.90;78.40;;;;;;5010531;28;20431;-73
2023/08/25 07:21:16;;;;;;;7.70;4.10;;;21.90;78.30;;;;;;5012155;28;20475;-75
2023/08/25 07:23:52;;;;;;;5.33;4.43;;;21.90;78.60;;;;;;5025896;28;20193;-74
2023/08/25 07:26:21;;;;;;;6.83;5.00;;;21.90;78.10;;;;;;5011964;28;20184;-74
2023/08/25 07:28:46;;;;;;;7.50;4.57;;;21.90;79.00;;;;;;5018908;28;20431;-74
2023/08/25 07:31:12;;;;;;;6.90;4.30;;;21.80;79.60;;;;;;5015064;28;20460;-74
2023/08/25 07:33:37;;;;;;;7.43;4.40;;;21.60;79.90;;;;;;5020307;28;20192;-74
2023/08/25 07:36:04;;;;;;;9.50;4.43;;;21.50;80.60;;;;;;5016313;28;20209;-74
2023/08/25 07:38:30;;;;;;;9.83;5.57;;;21.40;81.80;;;;;;5022766;28;20855;-74
2023/08/25 07:40:56;;;;;;;8.00;4.40;;;21.20;82.70;;;;;;5007531;28;20212;-73
2023/08/25 07:43:22;;;;;;;7.90;4.90;;;21.00;83.60;;;;;;5019133;28;20281;-74
2023/08/25 07:45:48;;;;;;;8.03;4.53;;;20.80;84.40;;;;;;5009145;28;20248;-74
2023/08/25 07:48:13;;;;;;;11.57;5.43;;;20.60;85.00;;;;;;5014346;28;20433;-74
2023/08/25 07:50:39;;;;;;;11.73;4.80;;;20.50;85.30;;;;;;5004925;28;20501;-73
2023/08/25 07:53:05;;;;;;;7.87;5.03;;;20.50;85.60;;;;;;5019849;28;20182;-75
2023/08/25 07:55:32;;;;;;;7.83;5.00;;;20.40;85.70;;;;;;5007810;28;20612;-74
2023/08/25 07:57:58;;;;;;;11.90;6.27;;;20.30;86.00;;;;;;5018603;28;20483;-73
2023/08/25 08:00:23;;;;;;;34.37;11.97;;;20.30;86.20;;;;;;5004942;28;20481;-74
2023/08/25 08:02:50;;;;;;;27.60;12.33;;;20.30;86.20;;;;;;5020840;28;20654;-74
2023/08/25 08:05:17;;;;;;;17.10;7.47;;;20.30;85.70;;;;;;5012168;28;20198;-73
2023/08/25 08:07:44;;;;;;;12.67;5.50;;;20.30;86.30;;;;;;5008460;28;20426;-73
2023/08/25 08:10:10;;;;;;;9.43;5.20;;;20.30;87.00;;;;;;5003693;28;20451;-73
2023/08/25 08:12:36;;;;;;;12.10;5.20;;;20.30;87.10;;;;;;5008029;28;20981;-73
2023/08/25 08:15:04;;;;;;;9.03;4.57;;;20.30;87.40;;;;;;5015246;28;20518;-74
2023/08/25 08:17:30;;;;;;;7.73;4.37;;;20.30;87.70;;;;;;5022280;28;20220;-72
2023/08/25 08:19:56;;;;;;;7.60;4.20;;;20.30;87.40;;;;;;5016194;28;20417;-73
2023/08/25 08:22:22;;;;;;;7.27;4.63;;;20.30;86.90;;;;;;5008376;28;20520;-74
2023/08/25 08:24:49;;;;;;;7.63;4.40;;;20.20;87.00;;;;;;5014130;28;20214;-75
2023/08/25 08:27:18;;;;;;;7.73;4.40;;;20.10;87.30;;;;;;5015769;28;20822;-72
2023/08/25 08:29:46;;;;;;;9.37;4.53;;;20.10;86.80;;;;;;5016215;28;20487;-74
2023/08/25 08:32:13;;;;;;;6.17;4.10;;;20.00;86.50;;;;;;5008087;28;20536;-74
2023/08/25 08:34:38;;;;;;;6.60;4.10;;;20.00;86.30;;;;;;5009732;28;20426;-73
2023/08/25 08:37:07;;;;;;;7.43;4.47;;;20.00;86.00;;;;;;5010563;28;20429;-74
2023/08/25 08:39:33;;;;;;;7.30;4.60;;;19.90;85.70;;;;;;5020003;28;20181;-75
2023/08/25 08:42:01;;;;;;;8.63;4.00;;;19.80;85.70;;;;;;5007919;28;20448;-74
2023/08/25 08:44:29;;;;;;;6.10;4.30;;;19.80;87.00;;;;;;5016605;28;20460;-73
2023/08/25 08:46:56;;;;;;;6.50;3.70;;;19.80;85.50;;;;;;5005744;28;20429;-73
2023/08/25 08:49:23;;;;;;;7.53;4.27;;;19.80;84.30;;;;;;5020510;28;20428;-74
2023/08/25 08:51:50;;;;;;;7.97;4.43;;;19.80;84.40;;;;;;5007832;28;20854;-74
2023/08/25 08:54:19;;;;;;;7.03;4.33;;;19.80;85.70;;;;;;5013175;28;20487;-74
2023/08/25 08:56:45;;;;;;;9.03;4.77;;;19.80;86.60;;;;;;5004954;28;20457;-74
2023/08/25 08:59:11;;;;;;;8.03;4.67;;;19.90;87.80;;;;;;5010344;28;20438;-74
2023/08/25 09:01:38;;;;;;;14.03;5.87;;;20.00;88.60;;;;;;5002372;28;21297;-74
2023/08/25 09:04:08;;;;;;;8.93;5.10;;;20.00;88.70;;;;;;5010155;28;20761;-74
2023/08/25 09:06:36;;;;;;;8.73;5.00;;;20.10;89.20;;;;;;5011293;28;20442;-75
2023/08/25 09:09:08;;;;;;;12.37;4.47;;;20.10;89.30;;;;;;5016867;28;20468;-73
2023/08/25 09:11:35;;;;;;;12.23;4.77;;;20.10;89.30;;;;;;5006999;28;20449;-75
2023/08/25 09:14:04;;;;;;;15.30;5.37;;;20.20;88.90;;;;;;5016302;28;20412;-74
2023/08/25 09:16:33;;;;;;;9.03;5.50;;;20.30;88.90;;;;;;5013679;28;20426;-75
2023/08/25 09:19:03;;;;;;;7.10;5.00;;;20.30;89.20;;;;;;5018354;28;20491;-74
2023/08/25 09:21:29;;;;;;;7.67;4.80;;;20.40;89.00;;;;;;5015796;28;20581;-73
2023/08/25 09:23:57;;;;;;;10.50;4.67;;;20.40;86.60;;;;;;5013909;28;20479;-74
2023/08/25 09:26:23;;;;;;;8.13;4.07;;;20.40;85.60;;;;;;5020593;28;20410;-74
2023/08/25 09:28:53;;;;;;;8.90;5.33;;;20.40;85.50;;;;;;5014254;28;20948;-74
2023/08/25 09:31:23;;;;;;;8.90;3.90;;;20.50;85.70;;;;;;5015838;28;20984;-73
2023/08/25 09:33:51;;;;;;;6.77;4.17;;;20.60;84.70;;;;;;5011875;28;20421;-73
2023/08/25 09:36:17;;;;;;;10.83;5.00;;;20.80;83.60;;;;;;5009915;28;20472;-73
2023/08/25 09:38:44;;;;;;;9.23;4.00;;;21.00;83.70;;;;;;5011451;28;20439;-73
2023/08/25 09:41:11;;;;;;;5.07;3.83;;;21.20;84.40;;;;;;5015745;28;20442;-74
2023/08/25 09:43:39;;;;;;;8.80;4.10;;;21.30;81.70;;;;;;5009336;28;20419;-74
2023/08/25 09:46:08;;;;;;;8.23;4.30;;;21.40;81.50;;;;;;5022727;28;20992;-73
2023/08/25 09:48:35;;;;;;;7.93;4.43;;;21.50;79.90;;;;;;5011170;28;20427;-74
2023/08/25 09:51:01;;;;;;;5.47;3.90;;;21.60;80.20;;;;;;5012681;28;20524;-74
2023/08/25 09:53:33;;;;;;;4.90;3.60;;;21.80;80.20;;;;;;5010693;28;20432;-74
2023/08/25 09:56:06;;;;;;;5.60;3.77;;;21.90;79.30;;;;;;5009159;28;20570;-74
2023/08/25 09:58:34;;;;;;;8.10;4.30;;;22.00;79.00;;;;;;5011921;28;20439;-73
2023/08/25 10:00:59;;;;;;;6.33;4.13;;;22.20;78.60;;;;;;5014194;28;20562;-73
2023/08/25 10:03:26;;;;;;;7.83;4.53;;;22.20;78.10;;;;;;5015375;28;20428;-75
2023/08/25 10:05:52;;;;;;;5.43;3.80;;;22.30;76.50;;;;;;5029096;28;20589;-73
2023/08/25 10:08:18;;;;;;;7.07;4.30;;;22.40;76.50;;;;;;5020083;28;20443;-74
2023/08/25 10:10:45;;;;;;;6.90;3.70;;;22.60;77.00;;;;;;5009292;28;20514;-74
2023/08/25 10:13:18;;;;;;;6.63;4.27;;;22.60;77.30;;;;;;5011938;28;20952;-75
2023/08/25 10:15:45;;;;;;;6.03;4.10;;;22.60;79.20;;;;;;5013564;28;20450;-74
2023/08/25 10:18:12;;;;;;;8.10;4.03;;;22.60;78.00;;;;;;5014872;28;20415;-74
2023/08/25 10:20:38;;;;;;;6.50;3.63;;;22.60;77.80;;;;;;5009898;28;21240;-74
2023/08/25 10:23:04;;;;;;;9.50;4.83;;;22.70;76.20;;;;;;5021298;28;20463;-73
2023/08/25 10:25:31;;;;;;;6.33;4.13;;;22.80;76.40;;;;;;5010909;28;20227;-74
2023/08/25 10:28:02;;;;;;;7.37;4.30;;;23.00;76.20;;;;;;5013700;28;20463;-74
2023/08/25 10:30:28;;;;;;;5.47;3.50;;;23.10;75.40;;;;;;5014770;28;20449;-74
2023/08/25 10:33:07;;;;;;;6.73;3.70;;;23.10;75.20;;;;;;5016183;28;20463;-74
2023/08/25 10:35:43;;;;;;;6.50;3.87;;;23.10;74.90;;;;;;5015552;28;20428;-73
2023/08/25 10:38:18;;;;;;;7.73;4.10;;;23.10;75.20;;;;;;5006091;28;20455;-72
2023/08/25 10:40:51;;;;;;;7.00;4.30;;;23.00;75.40;;;;;;5011586;28;20826;-74
2023/08/25 10:43:52;;;;;;;7.83;4.00;;;22.90;75.50;;;;;;5007896;28;20402;-74
2023/08/25 10:46:21;;;;;;;5.20;3.80;;;22.90;75.50;;;;;;5008672;28;20446;-74
2023/08/25 10:48:51;;;;;;;10.20;4.67;;;22.90;75.10;;;;;;5016571;28;20434;-73
2023/08/25 10:51:19;;;;;;;7.70;3.90;;;23.00;74.80;;;;;;5017297;28;20470;-74
2023/08/25 10:53:46;;;;;;;7.90;3.43;;;23.00;74.90;;;;;;5015623;28;20417;-72
2023/08/25 10:56:14;;;;;;;6.20;3.73;;;23.10;74.80;;;;;;5024005;28;20494;-74
2023/08/25 10:58:40;;;;;;;5.27;3.33;;;23.10;73.30;;;;;;5010432;28;20426;-74
2023/08/25 11:01:06;;;;;;;7.50;4.47;;;23.30;73.20;;;;;;5009718;28;20465;-74
2023/08/25 11:04:01;;;;;;;4.30;3.60;;;23.40;72.70;;;;;;5015665;28;20443;-73
2023/08/25 11:06:42;;;;;;;8.70;3.97;;;23.50;72.40;;;;;;5013303;28;20439;-74
2023/08/25 11:09:11;;;;;;;5.87;4.10;;;23.60;72.30;;;;;;5013833;28;20419;-74
2023/08/25 11:11:41;;;;;;;8.33;4.90;;;23.80;71.80;;;;;;5009898;28;20453;-74
2023/08/25 11:14:07;;;;;;;8.10;4.80;;;23.90;71.70;;;;;;5020148;28;20419;-75
2023/08/25 11:16:33;;;;;;;7.70;4.57;;;23.90;71.10;;;;;;5017361;28;20442;-73
2023/08/25 11:18:58;;;;;;;6.10;4.00;;;23.90;71.40;;;;;;5016309;28;20179;-73
2023/08/25 11:21:25;;;;;;;7.90;4.57;;;23.90;71.70;;;;;;5007524;28;20454;-74
2023/08/25 11:23:51;;;;;;;9.37;4.27;;;24.00;71.60;;;;;;5007610;28;20176;-72
2023/08/25 11:26:21;;;;;;;6.40;4.30;;;24.00;71.70;;;;;;5017991;28;20429;-73
2023/08/25 11:28:49;;;;;;;6.97;4.63;;;24.00;71.80;;;;;;5012313;28;20818;-74
2023/08/25 11:31:33;;;;;;;5.33;4.00;;;24.10;71.80;;;;;;5010870;28;20481;-73
2023/08/25 11:33:58;;;;;;;6.60;4.70;;;24.20;71.80;;;;;;5003360;28;20431;-75
2023/08/25 11:36:25;;;;;;;6.10;4.23;;;24.30;71.80;;;;;;5011043;28;20434;-73
2023/08/25 11:38:51;;;;;;;6.83;4.70;;;24.30;71.70;;;;;;5009945;28;20211;-74
2023/08/25 11:41:17;;;;;;;7.20;4.87;;;24.40;71.80;;;;;;5008471;28;20518;-74
2023/08/25 11:43:47;;;;;;;5.50;4.60;;;24.40;71.60;;;;;;5025256;28;20437;-72
2023/08/25 11:46:14;;;;;;;7.77;4.80;;;24.40;71.60;;;;;;5015005;28;20419;-73
2023/08/25 11:48:40;;;;;;;5.43;4.30;;;24.40;71.70;;;;;;5017575;28;20723;-73
2023/08/25 11:51:11;;;;;;;6.87;5.03;;;24.40;71.40;;;;;;5014510;28;20486;-73
2023/08/25 11:53:36;;;;;;;7.93;5.30;;;24.50;71.40;;;;;;5020014;28;20799;-72
2023/08/25 11:56:06;;;;;;;7.00;4.83;;;24.50;71.60;;;;;;5017462;28;20434;-74
2023/08/25 11:58:33;;;;;;;7.73;4.80;;;24.60;71.70;;;;;;5017355;28;20185;-74
2023/08/25 12:01:05;;;;;;;8.03;5.47;;;24.60;71.60;;;;;;5016385;28;20464;-71
2023/08/25 12:03:31;;;;;;;9.93;5.00;;;24.70;71.30;;;;;;5013342;28;20417;-73
2023/08/25 12:05:56;;;;;;;7.37;4.73;;;24.90;71.10;;;;;;5021096;28;20470;-75
2023/08/25 12:08:25;;;;;;;7.23;4.93;;;25.10;70.70;;;;;;5016131;28;20484;-73
2023/08/25 12:10:56;;;;;;;8.70;5.00;;;25.30;70.20;;;;;;5011891;28;20732;-73
2023/08/25 12:13:26;;;;;;;7.50;5.30;;;25.30;69.80;;;;;;5021451;28;20515;-73
2023/08/25 12:15:53;;;;;;;10.13;5.10;;;25.30;69.70;;;;;;5025146;28;20419;-72
2023/08/25 12:18:21;;;;;;;7.07;5.00;;;25.30;69.80;;;;;;5019311;28;20420;-74
2023/08/25 12:20:52;;;;;;;10.63;5.53;;;25.20;70.20;;;;;;5020234;28;20454;-74
2023/08/25 12:23:18;;;;;;;7.80;5.57;;;25.20;70.10;;;;;;5020563;28;20603;-72
2023/08/25 12:25:44;;;;;;;7.97;4.83;;;25.30;69.90;;;;;;5016608;28;20498;-72
2023/08/25 12:28:13;;;;;;;11.67;5.30;;;25.30;69.90;;;;;;5017856;28;20189;-72
2023/08/25 12:30:39;;;;;;;8.10;5.27;;;25.30;69.50;;;;;;5037325;28;20429;-72
2023/08/25 12:33:05;;;;;;;5.97;4.60;;;25.30;68.90;;;;;;5015086;28;21015;-72
2023/08/25 12:35:31;;;;;;;9.30;5.40;;;25.40;68.30;;;;;;5022776;28;20191;-74
2023/08/25 12:37:57;;;;;;;8.27;5.20;;;25.40;67.70;;;;;;5015173;28;20530;-74
2023/08/25 12:40:24;;;;;;;7.87;5.40;;;25.50;67.20;;;;;;5010648;28;20465;-73
2023/08/25 12:42:51;;;;;;;8.03;5.37;;;25.60;67.20;;;;;;5019798;28;20562;-73
2023/08/25 12:45:18;;;;;;;8.30;4.70;;;25.60;67.20;;;;;;5014325;28;20462;-74